sensor_id;sensor_type;location;lat;lon;timestamp;P1;durP1;ratioP1;P2;durP2;ratioP2
60492;SDS011;46341;51.290;-2.474;2023-05-19T00:02:16;10.18;;;3.90;;
60492;SDS011;46341;51.290;-2.474;2023-05-19T00:04:46;7.88;;;3.78;;
60492;SDS011;46341;51.290;-2.474;2023-05-19T00:07:14;11.20;;;3.58;;
60492;SDS011;46341;51.290;-2.474;2023-05-19T00:09:42;6.15;;;3.90;;
60492;SDS011;46341;51.290;-2.474;2023-05-19T00:12:09;8.40;;;3.90;;
60492;SDS011;46341;51.290;-2.474;2023-05-19T00:14:35;9.40;;;3.93;;
60492;SDS011;46341;51.290;-2.474;2023-05-19T00:17:02;12.10;;;4.85;;
60492;SDS011;46341;51.290;-2.474;2023-05-19T00:19:28;6.43;;;4.22;;
60492;SDS011;46341;51.290;-2.474;2023-05-19T00:21:57;8.30;;;3.80;;
60492;SDS011;46341;51.290;-2.474;2023-05-19T00:24:24;7.32;;;4.45;;
60492;SDS011;46341;51.290;-2.474;2023-05-19T00:26:50;6.55;;;4.10;;
60492;SDS011;46341;51.290;-2.474;2023-05-19T00:29:17;9.23;;;4.32;;
60492;SDS011;46341;51.290;-2.474;2023-05-19T00:31:44;7.57;;;4.13;;
60492;SDS011;46341;51.290;-2.474;2023-05-19T00:34:11;7.85;;;4.20;;
60492;SDS011;46341;51.290;-2.474;2023-05-19T00:36:37;7.93;;;4.43;;
60492;SDS011;46341;51.290;-2.474;2023-05-19T00:39:04;9.15;;;4.80;;
60492;SDS011;46341;51.290;-2.474;2023-05-19T00:41:30;10.20;;;4.95;;
60492;SDS011;46341;51.290;-2.474;2023-05-19T00:43:57;11.15;;;4.30;;
60492;SDS011;46341;51.290;-2.474;2023-05-19T00:46:23;11.73;;;4.65;;
60492;SDS011;46341;51.290;-2.474;2023-05-19T00:48:50;7.75;;;4.25;;
60492;SDS011;46341;51.290;-2.474;2023-05-19T00:51:16;10.27;;;4.13;;
60492;SDS011;46341;51.290;-2.474;2023-05-19T00:53:43;9.60;;;3.88;;
60492;SDS011;46341;51.290;-2.474;2023-05-19T00:56:14;7.28;;;3.42;;
60492;SDS011;46341;51.290;-2.474;2023-05-19T00:58:44;10.38;;;3.90;;
60492;SDS011;46341;51.290;-2.474;2023-05-19T01:01:11;10.00;;;3.87;;
60492;SDS011;46341;51.290;-2.474;2023-05-19T01:03:39;9.65;;;4.05;;
60492;SDS011;46341;51.290;-2.474;2023-05-19T01:06:08;6.57;;;4.03;;
60492;SDS011;46341;51.290;-2.474;2023-05-19T01:08:36;6.15;;;3.80;;
60492;SDS011;46341;51.290;-2.474;2023-05-19T01:11:06;8.57;;;4.07;;
60492;SDS011;46341;51.290;-2.474;2023-05-19T01:13:33;7.82;;;3.53;;
60492;SDS011;46341;51.290;-2.474;2023-05-19T01:16:01;7.88;;;4.13;;
60492;SDS011;46341;51.290;-2.474;2023-05-19T01:21:11;7.63;;;3.78;;
60492;SDS011;46341;51.290;-2.474;2023-05-19T01:23:46;8.48;;;4.55;;
60492;SDS011;46341;51.290;-2.474;2023-05-19T01:26:56;8.25;;;4.32;;
60492;SDS011;46341;51.290;-2.474;2023-05-19T01:32:14;9.50;;;4.03;;
60492;SDS011;46341;51.290;-2.474;2023-05-19T01:34:44;6.00;;;3.85;;
60492;SDS011;46341;51.290;-2.474;2023-05-19T01:37:11;8.07;;;3.70;;
60492;SDS011;46341;51.290;-2.474;2023-05-19T01:39:38;8.30;;;4.27;;
60492;SDS011;46341;51.290;-2.474;2023-05-19T01:42:05;8.45;;;4.05;;
60492;SDS011;46341;51.290;-2.474;2023-05-19T01:44:32;8.55;;;4.53;;
60492;SDS011;46341;51.290;-2.474;2023-05-19T01:46:58;9.15;;;4.22;;
60492;SDS011;46341;51.290;-2.474;2023-05-19T01:49:25;9.27;;;4.90;;
60492;SDS011;46341;51.290;-2.474;2023-05-19T01:51:52;8.07;;;4.28;;
60492;SDS011;46341;51.290;-2.474;2023-05-19T01:54:18;6.97;;;4.03;;
60492;SDS011;46341;51.290;-2.474;2023-05-19T01:56:53;7.63;;;4.55;;
60492;SDS011;46341;51.290;-2.474;2023-05-19T01:59:22;5.93;;;4.32;;
60492;SDS011;46341;51.290;-2.474;2023-05-19T02:01:53;11.45;;;4.80;;
60492;SDS011;46341;51.290;-2.474;2023-05-19T02:12:04;7.30;;;4.57;;
60492;SDS011;46341;51.290;-2.474;2023-05-19T02:14:36;10.23;;;4.65;;
60492;SDS011;46341;51.290;-2.474;2023-05-19T02:17:04;8.32;;;4.40;;
60492;SDS011;46341;51.290;-2.474;2023-05-19T02:19:32;9.33;;;5.03;;
60492;SDS011;46341;51.290;-2.474;2023-05-19T02:21:58;8.02;;;4.55;;
60492;SDS011;46341;51.290;-2.474;2023-05-19T02:24:25;7.82;;;4.20;;
60492;SDS011;46341;51.290;-2.474;2023-05-19T02:26:52;8.55;;;4.95;;
60492;SDS011;46341;51.290;-2.474;2023-05-19T02:29:19;9.48;;;5.25;;
60492;SDS011;46341;51.290;-2.474;2023-05-19T02:31:46;10.35;;;5.15;;
60492;SDS011;46341;51.290;-2.474;2023-05-19T02:34:12;7.63;;;4.80;;
60492;SDS011;46341;51.290;-2.474;2023-05-19T02:36:39;9.68;;;5.05;;
60492;SDS011;46341;51.290;-2.474;2023-05-19T02:39:06;9.32;;;4.75;;
60492;SDS011;46341;51.290;-2.474;2023-05-19T02:41:33;8.52;;;5.03;;
60492;SDS011;46341;51.290;-2.474;2023-05-19T02:43:59;7.00;;;4.45;;
60492;SDS011;46341;51.290;-2.474;2023-05-19T02:46:25;9.98;;;4.72;;
60492;SDS011;46341;51.290;-2.474;2023-05-19T02:48:52;9.63;;;5.40;;
60492;SDS011;46341;51.290;-2.474;2023-05-19T02:51:18;7.80;;;4.70;;
60492;SDS011;46341;51.290;-2.474;2023-05-19T02:53:44;7.90;;;5.15;;
60492;SDS011;46341;51.290;-2.474;2023-05-19T02:56:11;12.43;;;5.63;;
60492;SDS011;46341;51.290;-2.474;2023-05-19T02:58:37;9.15;;;5.57;;
60492;SDS011;46341;51.290;-2.474;2023-05-19T03:01:04;7.93;;;5.45;;
60492;SDS011;46341;51.290;-2.474;2023-05-19T03:03:31;6.78;;;4.88;;
60492;SDS011;46341;51.290;-2.474;2023-05-19T03:05:58;8.48;;;5.13;;
60492;SDS011;46341;51.290;-2.474;2023-05-19T03:08:24;6.70;;;5.18;;
60492;SDS011;46341;51.290;-2.474;2023-05-19T03:10:50;9.13;;;5.55;;
60492;SDS011;46341;51.290;-2.474;2023-05-19T03:13:17;8.10;;;5.63;;
60492;SDS011;46341;51.290;-2.474;2023-05-19T03:15:43;7.53;;;5.40;;
60492;SDS011;46341;51.290;-2.474;2023-05-19T03:18:10;7.85;;;5.00;;
60492;SDS011;46341;51.290;-2.474;2023-05-19T03:20:39;7.88;;;5.50;;
60492;SDS011;46341;51.290;-2.474;2023-05-19T03:25:34;6.77;;;5.77;;
60492;SDS011;46341;51.290;-2.474;2023-05-19T03:28:00;9.48;;;6.05;;
60492;SDS011;46341;51.290;-2.474;2023-05-19T03:30:26;8.68;;;5.93;;
60492;SDS011;46341;51.290;-2.474;2023-05-19T03:32:53;7.40;;;5.68;;
60492;SDS011;46341;51.290;-2.474;2023-05-19T03:35:19;7.95;;;5.82;;
60492;SDS011;46341;51.290;-2.474;2023-05-19T03:37:46;8.05;;;6.00;;
60492;SDS011;46341;51.290;-2.474;2023-05-19T03:40:12;7.63;;;5.85;;
60492;SDS011;46341;51.290;-2.474;2023-05-19T03:42:39;10.20;;;5.78;;
60492;SDS011;46341;51.290;-2.474;2023-05-19T03:45:05;6.85;;;5.88;;
60492;SDS011;46341;51.290;-2.474;2023-05-19T03:47:32;8.50;;;5.05;;
60492;SDS011;46341;51.290;-2.474;2023-05-19T03:49:58;7.95;;;5.90;;
60492;SDS011;46341;51.290;-2.474;2023-05-19T03:52:25;8.23;;;5.93;;
60492;SDS011;46341;51.290;-2.474;2023-05-19T03:54:51;8.00;;;5.85;;
60492;SDS011;46341;51.290;-2.474;2023-05-19T03:57:18;8.82;;;6.05;;
60492;SDS011;46341;51.290;-2.474;2023-05-19T03:59:44;8.18;;;6.07;;
60492;SDS011;46341;51.290;-2.474;2023-05-19T04:02:11;8.57;;;6.20;;
60492;SDS011;46341;51.290;-2.474;2023-05-19T04:04:37;9.80;;;6.22;;
60492;SDS011;46341;51.290;-2.474;2023-05-19T04:07:04;7.40;;;5.65;;
60492;SDS011;46341;51.290;-2.474;2023-05-19T04:09:30;7.50;;;6.03;;
60492;SDS011;46341;51.290;-2.474;2023-05-19T04:12:00;9.00;;;6.50;;
60492;SDS011;46341;51.290;-2.474;2023-05-19T04:16:54;10.15;;;6.72;;
60492;SDS011;46341;51.290;-2.474;2023-05-19T04:19:20;8.93;;;6.82;;
60492;SDS011;46341;51.290;-2.474;2023-05-19T04:21:47;10.40;;;6.97;;
60492;SDS011;46341;51.290;-2.474;2023-05-19T04:24:14;11.05;;;7.25;;
60492;SDS011;46341;51.290;-2.474;2023-05-19T04:26:40;9.07;;;7.53;;
60492;SDS011;46341;51.290;-2.474;2023-05-19T04:29:10;10.00;;;7.30;;
60492;SDS011;46341;51.290;-2.474;2023-05-19T04:31:39;9.82;;;7.78;;
60492;SDS011;46341;51.290;-2.474;2023-05-19T04:34:06;9.90;;;7.78;;
60492;SDS011;46341;51.290;-2.474;2023-05-19T04:36:35;12.63;;;8.55;;
60492;SDS011;46341;51.290;-2.474;2023-05-19T04:39:03;12.32;;;8.63;;
60492;SDS011;46341;51.290;-2.474;2023-05-19T04:41:32;12.60;;;8.75;;
60492;SDS011;46341;51.290;-2.474;2023-05-19T04:43:59;15.95;;;8.95;;
60492;SDS011;46341;51.290;-2.474;2023-05-19T04:46:26;12.18;;;8.63;;
60492;SDS011;46341;51.290;-2.474;2023-05-19T04:48:55;12.27;;;9.18;;
60492;SDS011;46341;51.290;-2.474;2023-05-19T04:51:22;11.88;;;9.07;;
60492;SDS011;46341;51.290;-2.474;2023-05-19T04:53:56;14.43;;;8.90;;
60492;SDS011;46341;51.290;-2.474;2023-05-19T04:56:22;10.35;;;8.80;;
60492;SDS011;46341;51.290;-2.474;2023-05-19T04:58:48;13.70;;;8.93;;
60492;SDS011;46341;51.290;-2.474;2023-05-19T05:01:15;12.43;;;9.00;;
60492;SDS011;46341;51.290;-2.474;2023-05-19T05:03:42;12.30;;;8.65;;
60492;SDS011;46341;51.290;-2.474;2023-05-19T05:06:08;11.80;;;8.32;;
60492;SDS011;46341;51.290;-2.474;2023-05-19T05:08:35;12.23;;;8.60;;
60492;SDS011;46341;51.290;-2.474;2023-05-19T05:11:05;12.60;;;8.93;;
60492;SDS011;46341;51.290;-2.474;2023-05-19T05:13:31;13.68;;;8.93;;
60492;SDS011;46341;51.290;-2.474;2023-05-19T05:15:58;12.52;;;8.90;;
60492;SDS011;46341;51.290;-2.474;2023-05-19T05:18:25;11.93;;;9.48;;
60492;SDS011;46341;51.290;-2.474;2023-05-19T05:20:51;12.63;;;9.32;;
60492;SDS011;46341;51.290;-2.474;2023-05-19T05:23:18;12.57;;;9.77;;
60492;SDS011;46341;51.290;-2.474;2023-05-19T05:25:45;14.90;;;9.57;;
60492;SDS011;46341;51.290;-2.474;2023-05-19T05:28:12;10.82;;;9.23;;
60492;SDS011;46341;51.290;-2.474;2023-05-19T05:30:38;13.25;;;9.73;;
60492;SDS011;46341;51.290;-2.474;2023-05-19T05:35:32;12.82;;;9.73;;
60492;SDS011;46341;51.290;-2.474;2023-05-19T05:37:59;14.52;;;9.80;;
60492;SDS011;46341;51.290;-2.474;2023-05-19T05:40:27;13.02;;;9.05;;
60492;SDS011;46341;51.290;-2.474;2023-05-19T05:42:53;11.57;;;9.30;;
60492;SDS011;46341;51.290;-2.474;2023-05-19T05:45:24;15.00;;;9.73;;
60492;SDS011;46341;51.290;-2.474;2023-05-19T05:47:51;14.43;;;10.15;;
60492;SDS011;46341;51.290;-2.474;2023-05-19T05:50:17;12.02;;;8.73;;
60492;SDS011;46341;51.290;-2.474;2023-05-19T05:52:47;15.80;;;9.63;;
60492;SDS011;46341;51.290;-2.474;2023-05-19T05:55:14;14.65;;;9.63;;
60492;SDS011;46341;51.290;-2.474;2023-05-19T05:57:40;11.43;;;8.63;;
60492;SDS011;46341;51.290;-2.474;2023-05-19T06:00:07;11.32;;;9.25;;
60492;SDS011;46341;51.290;-2.474;2023-05-19T06:02:47;11.95;;;8.57;;
60492;SDS011;46341;51.290;-2.474;2023-05-19T06:05:14;13.48;;;9.05;;
60492;SDS011;46341;51.290;-2.474;2023-05-19T06:07:41;11.27;;;8.40;;
60492;SDS011;46341;51.290;-2.474;2023-05-19T06:10:08;11.25;;;8.98;;
60492;SDS011;46341;51.290;-2.474;2023-05-19T06:12:37;11.25;;;7.95;;
60492;SDS011;46341;51.290;-2.474;2023-05-19T06:15:06;9.63;;;8.02;;
60492;SDS011;46341;51.290;-2.474;2023-05-19T06:17:33;8.95;;;7.78;;
60492;SDS011;46341;51.290;-2.474;2023-05-19T06:20:02;12.55;;;8.15;;
60492;SDS011;46341;51.290;-2.474;2023-05-19T06:22:30;8.95;;;7.00;;
60492;SDS011;46341;51.290;-2.474;2023-05-19T06:24:57;10.38;;;6.63;;
60492;SDS011;46341;51.290;-2.474;2023-05-19T06:27:23;9.75;;;6.30;;
60492;SDS011;46341;51.290;-2.474;2023-05-19T06:29:50;9.10;;;5.95;;
60492;SDS011;46341;51.290;-2.474;2023-05-19T06:32:16;8.55;;;5.63;;
60492;SDS011;46341;51.290;-2.474;2023-05-19T06:34:42;8.25;;;5.90;;
60492;SDS011;46341;51.290;-2.474;2023-05-19T06:37:09;6.10;;;4.88;;
60492;SDS011;46341;51.290;-2.474;2023-05-19T06:39:36;7.20;;;5.55;;
60492;SDS011;46341;51.290;-2.474;2023-05-19T06:42:03;8.17;;;5.50;;
60492;SDS011;46341;51.290;-2.474;2023-05-19T06:44:29;9.88;;;5.78;;
60492;SDS011;46341;51.290;-2.474;2023-05-19T06:46:56;8.00;;;5.38;;
60492;SDS011;46341;51.290;-2.474;2023-05-19T06:49:22;7.90;;;5.82;;
60492;SDS011;46341;51.290;-2.474;2023-05-19T06:51:49;5.50;;;4.93;;
60492;SDS011;46341;51.290;-2.474;2023-05-19T06:54:15;9.98;;;5.50;;
60492;SDS011;46341;51.290;-2.474;2023-05-19T06:56:42;7.68;;;5.45;;
60492;SDS011;46341;51.290;-2.474;2023-05-19T06:59:08;9.00;;;5.25;;
60492;SDS011;46341;51.290;-2.474;2023-05-19T07:01:34;6.97;;;4.50;;
60492;SDS011;46341;51.290;-2.474;2023-05-19T07:04:01;7.03;;;5.53;;
60492;SDS011;46341;51.290;-2.474;2023-05-19T07:06:28;8.63;;;5.13;;
60492;SDS011;46341;51.290;-2.474;2023-05-19T07:08:54;8.25;;;4.80;;
60492;SDS011;46341;51.290;-2.474;2023-05-19T07:11:21;7.78;;;5.10;;
60492;SDS011;46341;51.290;-2.474;2023-05-19T07:13:47;9.10;;;4.88;;
60492;SDS011;46341;51.290;-2.474;2023-05-19T07:16:14;9.38;;;5.45;;
60492;SDS011;46341;51.290;-2.474;2023-05-19T07:18:40;7.07;;;4.63;;
60492;SDS011;46341;51.290;-2.474;2023-05-19T07:21:07;9.57;;;4.95;;
60492;SDS011;46341;51.290;-2.474;2023-05-19T07:23:33;7.53;;;5.55;;
60492;SDS011;46341;51.290;-2.474;2023-05-19T07:26:00;8.73;;;5.28;;
60492;SDS011;46341;51.290;-2.474;2023-05-19T07:28:26;7.00;;;5.40;;
60492;SDS011;46341;51.290;-2.474;2023-05-19T07:30:53;11.15;;;5.22;;
60492;SDS011;46341;51.290;-2.474;2023-05-19T07:33:19;6.32;;;4.88;;
60492;SDS011;46341;51.290;-2.474;2023-05-19T07:35:46;6.88;;;4.90;;
60492;SDS011;46341;51.290;-2.474;2023-05-19T07:38:12;8.70;;;5.10;;
60492;SDS011;46341;51.290;-2.474;2023-05-19T07:40:39;6.88;;;4.88;;
60492;SDS011;46341;51.290;-2.474;2023-05-19T07:43:05;7.78;;;5.40;;
60492;SDS011;46341;51.290;-2.474;2023-05-19T07:45:31;8.88;;;5.40;;
60492;SDS011;46341;51.290;-2.474;2023-05-19T07:47:58;7.28;;;5.43;;
60492;SDS011;46341;51.290;-2.474;2023-05-19T07:50:24;7.07;;;4.95;;
60492;SDS011;46341;51.290;-2.474;2023-05-19T07:52:51;7.85;;;4.97;;
60492;SDS011;46341;51.290;-2.474;2023-05-19T07:55:18;8.85;;;5.25;;
60492;SDS011;46341;51.290;-2.474;2023-05-19T07:57:44;7.28;;;4.90;;
60492;SDS011;46341;51.290;-2.474;2023-05-19T08:00:11;7.85;;;4.97;;
60492;SDS011;46341;51.290;-2.474;2023-05-19T08:05:05;7.55;;;5.13;;
60492;SDS011;46341;51.290;-2.474;2023-05-19T08:07:31;7.43;;;5.10;;
60492;SDS011;46341;51.290;-2.474;2023-05-19T08:09:58;8.93;;;5.70;;
60492;SDS011;46341;51.290;-2.474;2023-05-19T08:12:24;7.82;;;5.35;;
60492;SDS011;46341;51.290;-2.474;2023-05-19T08:14:51;7.50;;;5.10;;
60492;SDS011;46341;51.290;-2.474;2023-05-19T08:17:17;6.40;;;4.63;;
60492;SDS011;46341;51.290;-2.474;2023-05-19T08:19:44;7.87;;;4.93;;
60492;SDS011;46341;51.290;-2.474;2023-05-19T08:22:11;7.90;;;4.90;;
60492;SDS011;46341;51.290;-2.474;2023-05-19T08:24:37;5.73;;;4.87;;
60492;SDS011;46341;51.290;-2.474;2023-05-19T08:27:04;6.88;;;4.63;;
60492;SDS011;46341;51.290;-2.474;2023-05-19T08:29:31;6.07;;;5.18;;
60492;SDS011;46341;51.290;-2.474;2023-05-19T08:31:58;6.97;;;5.07;;
60492;SDS011;46341;51.290;-2.474;2023-05-19T08:36:51;5.97;;;4.72;;
60492;SDS011;46341;51.290;-2.474;2023-05-19T08:39:18;6.32;;;5.03;;
60492;SDS011;46341;51.290;-2.474;2023-05-19T08:41:49;7.47;;;4.63;;
60492;SDS011;46341;51.290;-2.474;2023-05-19T08:44:15;6.40;;;4.70;;
60492;SDS011;46341;51.290;-2.474;2023-05-19T08:46:44;5.03;;;4.18;;
60492;SDS011;46341;51.290;-2.474;2023-05-19T08:49:13;8.10;;;4.75;;
60492;SDS011;46341;51.290;-2.474;2023-05-19T08:51:53;9.35;;;5.05;;
60492;SDS011;46341;51.290;-2.474;2023-05-19T08:54:21;7.68;;;4.63;;
60492;SDS011;46341;51.290;-2.474;2023-05-19T08:56:50;7.22;;;5.47;;
60492;SDS011;46341;51.290;-2.474;2023-05-19T08:59:17;6.65;;;4.93;;
60492;SDS011;46341;51.290;-2.474;2023-05-19T09:01:44;7.03;;;5.07;;
60492;SDS011;46341;51.290;-2.474;2023-05-19T09:04:11;7.00;;;5.30;;
60492;SDS011;46341;51.290;-2.474;2023-05-19T09:06:38;9.02;;;5.53;;
60492;SDS011;46341;51.290;-2.474;2023-05-19T09:09:07;7.80;;;4.65;;
60492;SDS011;46341;51.290;-2.474;2023-05-19T09:11:34;5.55;;;4.53;;
60492;SDS011;46341;51.290;-2.474;2023-05-19T09:14:03;6.65;;;4.43;;
60492;SDS011;46341;51.290;-2.474;2023-05-19T09:16:30;6.35;;;5.00;;
60492;SDS011;46341;51.290;-2.474;2023-05-19T09:18:57;6.30;;;4.45;;
60492;SDS011;46341;51.290;-2.474;2023-05-19T09:21:26;7.70;;;4.88;;
60492;SDS011;46341;51.290;-2.474;2023-05-19T09:23:56;5.95;;;4.53;;
60492;SDS011;46341;51.290;-2.474;2023-05-19T09:26:24;6.35;;;4.30;;
60492;SDS011;46341;51.290;-2.474;2023-05-19T09:29:01;5.05;;;4.28;;
60492;SDS011;46341;51.290;-2.474;2023-05-19T09:31:30;6.72;;;4.68;;
60492;SDS011;46341;51.290;-2.474;2023-05-19T09:33:57;7.47;;;4.90;;
60492;SDS011;46341;51.290;-2.474;2023-05-19T09:36:23;5.75;;;4.50;;
60492;SDS011;46341;51.290;-2.474;2023-05-19T09:38:50;6.15;;;4.68;;
60492;SDS011;46341;51.290;-2.474;2023-05-19T09:41:16;5.93;;;4.22;;
60492;SDS011;46341;51.290;-2.474;2023-05-19T09:43:43;7.05;;;4.20;;
60492;SDS011;46341;51.290;-2.474;2023-05-19T09:46:20;4.10;;;3.60;;
60492;SDS011;46341;51.290;-2.474;2023-05-19T09:48:55;4.75;;;3.22;;
60492;SDS011;46341;51.290;-2.474;2023-05-19T09:51:22;4.78;;;4.32;;
60492;SDS011;46341;51.290;-2.474;2023-05-19T09:53:48;5.28;;;3.80;;
60492;SDS011;46341;51.290;-2.474;2023-05-19T09:56:15;5.60;;;3.65;;
60492;SDS011;46341;51.290;-2.474;2023-05-19T09:58:42;6.88;;;3.78;;
60492;SDS011;46341;51.290;-2.474;2023-05-19T10:01:08;5.88;;;3.70;;
60492;SDS011;46341;51.290;-2.474;2023-05-19T10:03:35;6.20;;;4.20;;
60492;SDS011;46341;51.290;-2.474;2023-05-19T10:06:03;5.45;;;3.90;;
60492;SDS011;46341;51.290;-2.474;2023-05-19T10:08:29;5.90;;;3.53;;
60492;SDS011;46341;51.290;-2.474;2023-05-19T10:10:57;3.63;;;3.20;;
60492;SDS011;46341;51.290;-2.474;2023-05-19T10:15:49;5.75;;;3.40;;
60492;SDS011;46341;51.290;-2.474;2023-05-19T10:18:20;4.70;;;3.25;;
60492;SDS011;46341;51.290;-2.474;2023-05-19T10:20:48;5.68;;;4.13;;
60492;SDS011;46341;51.290;-2.474;2023-05-19T10:23:15;5.72;;;4.55;;
60492;SDS011;46341;51.290;-2.474;2023-05-19T10:25:41;5.07;;;3.97;;
60492;SDS011;46341;51.290;-2.474;2023-05-19T10:28:10;6.43;;;4.72;;
60492;SDS011;46341;51.290;-2.474;2023-05-19T10:30:38;6.88;;;4.28;;
60492;SDS011;46341;51.290;-2.474;2023-05-19T10:33:06;6.70;;;4.43;;
60492;SDS011;46341;51.290;-2.474;2023-05-19T10:45:51;4.75;;;3.50;;
60492;SDS011;46341;51.290;-2.474;2023-05-19T10:48:18;4.75;;;4.28;;
60492;SDS011;46341;51.290;-2.474;2023-05-19T10:50:45;4.28;;;3.70;;
60492;SDS011;46341;51.290;-2.474;2023-05-19T10:53:12;5.07;;;3.85;;
60492;SDS011;46341;51.290;-2.474;2023-05-19T10:55:46;4.18;;;3.72;;
60492;SDS011;46341;51.290;-2.474;2023-05-19T10:58:15;4.22;;;3.83;;
60492;SDS011;46341;51.290;-2.474;2023-05-19T11:01:01;6.20;;;4.35;;
60492;SDS011;46341;51.290;-2.474;2023-05-19T11:03:28;4.72;;;4.10;;
60492;SDS011;46341;51.290;-2.474;2023-05-19T11:08:58;5.63;;;3.88;;
60492;SDS011;46341;51.290;-2.474;2023-05-19T11:11:50;5.35;;;4.13;;
60492;SDS011;46341;51.290;-2.474;2023-05-19T11:14:17;4.72;;;3.63;;
60492;SDS011;46341;51.290;-2.474;2023-05-19T11:16:48;6.18;;;3.58;;
60492;SDS011;46341;51.290;-2.474;2023-05-19T11:21:48;5.60;;;3.75;;
60492;SDS011;46341;51.290;-2.474;2023-05-19T11:29:43;5.63;;;3.55;;
60492;SDS011;46341;51.290;-2.474;2023-05-19T11:32:10;4.38;;;3.58;;
60492;SDS011;46341;51.290;-2.474;2023-05-19T11:34:38;6.22;;;3.95;;
60492;SDS011;46341;51.290;-2.474;2023-05-19T11:37:05;5.05;;;3.90;;
60492;SDS011;46341;51.290;-2.474;2023-05-19T11:39:31;4.55;;;3.70;;
60492;SDS011;46341;51.290;-2.474;2023-05-19T11:41:58;4.47;;;3.75;;
60492;SDS011;46341;51.290;-2.474;2023-05-19T11:44:24;3.97;;;3.67;;
60492;SDS011;46341;51.290;-2.474;2023-05-19T11:46:51;6.70;;;4.05;;
60492;SDS011;46341;51.290;-2.474;2023-05-19T11:49:18;5.13;;;4.05;;
60492;SDS011;46341;51.290;-2.474;2023-05-19T11:51:44;6.32;;;3.92;;
60492;SDS011;46341;51.290;-2.474;2023-05-19T11:54:11;4.80;;;3.50;;
60492;SDS011;46341;51.290;-2.474;2023-05-19T11:56:41;5.50;;;3.40;;
60492;SDS011;46341;51.290;-2.474;2023-05-19T11:59:08;5.38;;;3.95;;
60492;SDS011;46341;51.290;-2.474;2023-05-19T12:01:34;5.97;;;4.13;;
60492;SDS011;46341;51.290;-2.474;2023-05-19T12:04:01;6.28;;;3.95;;
60492;SDS011;46341;51.290;-2.474;2023-05-19T12:06:28;5.65;;;3.75;;
60492;SDS011;46341;51.290;-2.474;2023-05-19T12:08:55;5.13;;;4.07;;
60492;SDS011;46341;51.290;-2.474;2023-05-19T12:11:22;4.65;;;3.90;;
60492;SDS011;46341;51.290;-2.474;2023-05-19T12:13:48;4.97;;;4.05;;
60492;SDS011;46341;51.290;-2.474;2023-05-19T12:16:18;5.35;;;4.47;;
60492;SDS011;46341;51.290;-2.474;2023-05-19T12:18:45;5.18;;;4.22;;
60492;SDS011;46341;51.290;-2.474;2023-05-19T12:23:38;7.45;;;4.57;;
60492;SDS011;46341;51.290;-2.474;2023-05-19T12:26:06;7.30;;;4.32;;
60492;SDS011;46341;51.290;-2.474;2023-05-19T12:30:59;5.88;;;4.22;;
60492;SDS011;46341;51.290;-2.474;2023-05-19T12:33:27;7.30;;;4.68;;
60492;SDS011;46341;51.290;-2.474;2023-05-19T12:35:53;6.80;;;4.93;;
60492;SDS011;46341;51.290;-2.474;2023-05-19T12:38:21;7.60;;;4.78;;
60492;SDS011;46341;51.290;-2.474;2023-05-19T12:40:48;6.70;;;4.43;;
60492;SDS011;46341;51.290;-2.474;2023-05-19T12:43:18;4.90;;;4.20;;
60492;SDS011;46341;51.290;-2.474;2023-05-19T12:45:45;7.93;;;4.70;;
60492;SDS011;46341;51.290;-2.474;2023-05-19T12:48:11;5.88;;;4.28;;
60492;SDS011;46341;51.290;-2.474;2023-05-19T12:50:41;4.50;;;4.10;;
60492;SDS011;46341;51.290;-2.474;2023-05-19T12:53:09;7.22;;;4.35;;
60492;SDS011;46341;51.290;-2.474;2023-05-19T12:55:39;6.07;;;4.45;;
60492;SDS011;46341;51.290;-2.474;2023-05-19T12:58:11;5.20;;;4.32;;
60492;SDS011;46341;51.290;-2.474;2023-05-19T13:00:41;6.32;;;4.13;;
60492;SDS011;46341;51.290;-2.474;2023-05-19T13:03:16;13.98;;;4.82;;
60492;SDS011;46341;51.290;-2.474;2023-05-19T13:05:47;4.60;;;3.80;;
60492;SDS011;46341;51.290;-2.474;2023-05-19T13:08:18;5.47;;;4.25;;
60492;SDS011;46341;51.290;-2.474;2023-05-19T13:10:45;5.13;;;4.10;;
60492;SDS011;46341;51.290;-2.474;2023-05-19T13:13:12;4.93;;;3.67;;
60492;SDS011;46341;51.290;-2.474;2023-05-19T13:15:43;5.65;;;3.88;;
60492;SDS011;46341;51.290;-2.474;2023-05-19T13:18:10;4.28;;;3.95;;
60492;SDS011;46341;51.290;-2.474;2023-05-19T13:20:38;5.65;;;4.43;;
60492;SDS011;46341;51.290;-2.474;2023-05-19T13:23:04;7.03;;;4.45;;
60492;SDS011;46341;51.290;-2.474;2023-05-19T13:27:59;5.03;;;4.22;;
60492;SDS011;46341;51.290;-2.474;2023-05-19T13:30:26;8.68;;;4.05;;
60492;SDS011;46341;51.290;-2.474;2023-05-19T13:32:53;7.93;;;4.57;;
60492;SDS011;46341;51.290;-2.474;2023-05-19T13:35:20;5.65;;;4.05;;
60492;SDS011;46341;51.290;-2.474;2023-05-19T13:37:47;6.70;;;4.47;;
60492;SDS011;46341;51.290;-2.474;2023-05-19T13:40:14;6.28;;;4.60;;
60492;SDS011;46341;51.290;-2.474;2023-05-19T13:42:41;5.00;;;4.10;;
60492;SDS011;46341;51.290;-2.474;2023-05-19T13:45:08;7.03;;;4.28;;
60492;SDS011;46341;51.290;-2.474;2023-05-19T13:47:34;5.97;;;4.28;;
60492;SDS011;46341;51.290;-2.474;2023-05-19T13:50:01;5.18;;;4.13;;
60492;SDS011;46341;51.290;-2.474;2023-05-19T13:52:28;8.85;;;4.68;;
60492;SDS011;46341;51.290;-2.474;2023-05-19T13:54:55;5.10;;;4.45;;
60492;SDS011;46341;51.290;-2.474;2023-05-19T13:57:22;5.43;;;4.30;;
60492;SDS011;46341;51.290;-2.474;2023-05-19T13:59:49;7.55;;;4.60;;
60492;SDS011;46341;51.290;-2.474;2023-05-19T14:02:27;9.32;;;4.55;;
60492;SDS011;46341;51.290;-2.474;2023-05-19T14:04:55;9.20;;;4.50;;
60492;SDS011;46341;51.290;-2.474;2023-05-19T14:07:21;7.70;;;4.30;;
60492;SDS011;46341;51.290;-2.474;2023-05-19T14:09:48;9.07;;;4.40;;
60492;SDS011;46341;51.290;-2.474;2023-05-19T14:12:16;5.22;;;4.00;;
60492;SDS011;46341;51.290;-2.474;2023-05-19T14:14:42;5.68;;;4.75;;
60492;SDS011;46341;51.290;-2.474;2023-05-19T14:17:09;5.30;;;4.07;;
60492;SDS011;46341;51.290;-2.474;2023-05-19T14:19:35;5.80;;;4.00;;
60492;SDS011;46341;51.290;-2.474;2023-05-19T14:22:02;6.03;;;4.00;;
60492;SDS011;46341;51.290;-2.474;2023-05-19T14:24:29;5.35;;;3.70;;
60492;SDS011;46341;51.290;-2.474;2023-05-19T14:26:55;4.40;;;3.50;;
60492;SDS011;46341;51.290;-2.474;2023-05-19T14:29:22;5.43;;;3.47;;
60492;SDS011;46341;51.290;-2.474;2023-05-19T14:31:48;5.70;;;3.60;;
60492;SDS011;46341;51.290;-2.474;2023-05-19T14:34:15;4.38;;;3.33;;
60492;SDS011;46341;51.290;-2.474;2023-05-19T14:36:46;4.22;;;2.80;;
60492;SDS011;46341;51.290;-2.474;2023-05-19T14:39:13;3.97;;;2.80;;
60492;SDS011;46341;51.290;-2.474;2023-05-19T14:44:06;5.43;;;2.80;;
60492;SDS011;46341;51.290;-2.474;2023-05-19T14:46:33;4.03;;;3.08;;
60492;SDS011;46341;51.290;-2.474;2023-05-19T14:51:26;5.13;;;3.20;;
60492;SDS011;46341;51.290;-2.474;2023-05-19T14:56:18;4.03;;;2.80;;
60492;SDS011;46341;51.290;-2.474;2023-05-19T14:58:45;3.75;;;3.10;;
60492;SDS011;46341;51.290;-2.474;2023-05-19T15:03:38;4.70;;;3.13;;
60492;SDS011;46341;51.290;-2.474;2023-05-19T15:06:07;3.58;;;3.03;;
60492;SDS011;46341;51.290;-2.474;2023-05-19T15:08:35;5.45;;;3.45;;
60492;SDS011;46341;51.290;-2.474;2023-05-19T15:11:03;3.67;;;2.90;;
60492;SDS011;46341;51.290;-2.474;2023-05-19T15:13:29;2.83;;;2.55;;
60492;SDS011;46341;51.290;-2.474;2023-05-19T15:15:56;4.68;;;2.72;;
60492;SDS011;46341;51.290;-2.474;2023-05-19T15:18:41;3.50;;;2.70;;
60492;SDS011;46341;51.290;-2.474;2023-05-19T15:21:08;3.58;;;2.70;;
60492;SDS011;46341;51.290;-2.474;2023-05-19T15:23:34;3.00;;;2.78;;
60492;SDS011;46341;51.290;-2.474;2023-05-19T15:26:01;3.63;;;2.75;;
60492;SDS011;46341;51.290;-2.474;2023-05-19T15:28:27;3.90;;;3.05;;
60492;SDS011;46341;51.290;-2.474;2023-05-19T15:30:54;3.42;;;2.40;;
60492;SDS011;46341;51.290;-2.474;2023-05-19T15:33:20;4.30;;;2.85;;
60492;SDS011;46341;51.290;-2.474;2023-05-19T15:35:47;3.10;;;2.25;;
60492;SDS011;46341;51.290;-2.474;2023-05-19T15:38:17;2.42;;;2.22;;
60492;SDS011;46341;51.290;-2.474;2023-05-19T15:40:44;4.80;;;4.10;;
60492;SDS011;46341;51.290;-2.474;2023-05-19T15:43:10;6.78;;;5.25;;